sensor_id;sensor_type;location;lat;lon;timestamp;temperature;humidity
14884;DHT22;7534;50.762;7.000;2023-04-01T00:00:57;12.00;99.90
14884;DHT22;7534;50.762;7.000;2023-04-01T00:03:24;12.00;99.90
14884;DHT22;7534;50.762;7.000;2023-04-01T00:05:53;11.90;99.90
14884;DHT22;7534;50.762;7.000;2023-04-01T00:08:19;12.00;99.90
14884;DHT22;7534;50.762;7.000;2023-04-01T00:10:45;12.00;99.90
14884;DHT22;7534;50.762;7.000;2023-04-01T00:13:11;12.00;99.90
14884;DHT22;7534;50.762;7.000;2023-04-01T00:15:37;12.00;99.90
14884;DHT22;7534;50.762;7.000;2023-04-01T00:18:03;12.10;99.90
14884;DHT22;7534;50.762;7.000;2023-04-01T00:20:30;12.00;99.90
14884;DHT22;7534;50.762;7.000;2023-04-01T00:22:56;12.10;99.90
14884;DHT22;7534;50.762;7.000;2023-04-01T00:25:22;12.10;99.90
14884;DHT22;7534;50.762;7.000;2023-04-01T00:27:48;12.10;99.90
14884;DHT22;7534;50.762;7.000;2023-04-01T00:30:15;12.00;99.90
14884;DHT22;7534;50.762;7.000;2023-04-01T00:32:51;12.00;99.90
14884;DHT22;7534;50.762;7.000;2023-04-01T00:35:19;12.00;99.90
14884;DHT22;7534;50.762;7.000;2023-04-01T00:37:45;12.00;99.90
14884;DHT22;7534;50.762;7.000;2023-04-01T00:40:34;12.10;99.90
14884;DHT22;7534;50.762;7.000;2023-04-01T00:43:03;12.10;99.90
14884;DHT22;7534;50.762;7.000;2023-04-01T00:45:37;12.00;99.90
14884;DHT22;7534;50.762;7.000;2023-04-01T00:48:20;12.00;99.90
14884;DHT22;7534;50.762;7.000;2023-04-01T00:51:01;12.10;99.90
14884;DHT22;7534;50.762;7.000;2023-04-01T00:53:30;11.90;99.90
14884;DHT22;7534;50.762;7.000;2023-04-01T00:56:07;12.00;99.90
14884;DHT22;7534;50.762;7.000;2023-04-01T00:58:41;11.90;99.90
14884;DHT22;7534;50.762;7.000;2023-04-01T01:01:12;11.90;99.90
14884;DHT22;7534;50.762;7.000;2023-04-01T01:03:38;12.00;99.90
14884;DHT22;7534;50.762;7.000;2023-04-01T01:09:25;12.00;99.90
14884;DHT22;7534;50.762;7.000;2023-04-01T01:12:20;11.90;99.90
14884;DHT22;7534;50.762;7.000;2023-04-01T01:15:36;11.80;99.90
14884;DHT22;7534;50.762;7.000;2023-04-01T01:27:12;11.80;99.90
14884;DHT22;7534;50.762;7.000;2023-04-01T01:38:13;12.00;99.90
14884;DHT22;7534;50.762;7.000;2023-04-01T01:40:44;12.00;99.90
14884;DHT22;7534;50.762;7.000;2023-04-01T01:43:16;11.90;99.90
14884;DHT22;7534;50.762;7.000;2023-04-01T01:45:48;11.90;99.90
14884;DHT22;7534;50.762;7.000;2023-04-01T01:48:18;11.90;99.90
14884;DHT22;7534;50.762;7.000;2023-04-01T01:50:46;11.90;99.90
14884;DHT22;7534;50.762;7.000;2023-04-01T01:53:13;11.90;99.90
14884;DHT22;7534;50.762;7.000;2023-04-01T01:55:44;11.80;99.90
14884;DHT22;7534;50.762;7.000;2023-04-01T01:58:20;11.90;99.90
14884;DHT22;7534;50.762;7.000;2023-04-01T02:00:57;11.90;99.90
14884;DHT22;7534;50.762;7.000;2023-04-01T02:03:29;12.00;99.90
14884;DHT22;7534;50.762;7.000;2023-04-01T02:06:00;11.90;99.90
14884;DHT22;7534;50.762;7.000;2023-04-01T02:08:34;11.90;99.90
14884;DHT22;7534;50.762;7.000;2023-04-01T02:11:42;12.00;99.90
14884;DHT22;7534;50.762;7.000;2023-04-01T02:14:19;11.90;99.80
14884;DHT22;7534;50.762;7.000;2023-04-01T02:17:09;12.00;99.90
14884;DHT22;7534;50.762;7.000;2023-04-01T02:20:04;11.90;99.90
14884;DHT22;7534;50.762;7.000;2023-04-01T02:22:38;11.80;99.90
14884;DHT22;7534;50.762;7.000;2023-04-01T02:25:11;11.80;99.90
14884;DHT22;7534;50.762;7.000;2023-04-01T02:27:43;11.80;99.90
14884;DHT22;7534;50.762;7.000;2023-04-01T02:30:12;11.80;99.90
14884;DHT22;7534;50.762;7.000;2023-04-01T02:32:39;11.70;99.90
14884;DHT22;7534;50.762;7.000;2023-04-01T02:35:08;11.70;99.90
14884;DHT22;7534;50.762;7.000;2023-04-01T02:37:38;11.70;99.90
14884;DHT22;7534;50.762;7.000;2023-04-01T02:40:07;11.70;99.90
14884;DHT22;7534;50.762;7.000;2023-04-01T02:42:36;11.70;99.90
14884;DHT22;7534;50.762;7.000;2023-04-01T02:45:02;11.60;99.90
14884;DHT22;7534;50.762;7.000;2023-04-01T02:47:29;11.60;99.90
14884;DHT22;7534;50.762;7.000;2023-04-01T02:49:55;11.50;99.90
14884;DHT22;7534;50.762;7.000;2023-04-01T02:52:30;11.60;99.90
14884;DHT22;7534;50.762;7.000;2023-04-01T02:54:56;11.60;99.90
14884;DHT22;7534;50.762;7.000;2023-04-01T02:57:22;11.60;99.90
14884;DHT22;7534;50.762;7.000;2023-04-01T02:59:49;11.50;99.90
14884;DHT22;7534;50.762;7.000;2023-04-01T03:02:15;11.50;99.90
14884;DHT22;7534;50.762;7.000;2023-04-01T03:04:41;11.50;99.90
14884;DHT22;7534;50.762;7.000;2023-04-01T03:07:08;11.40;99.90
14884;DHT22;7534;50.762;7.000;2023-04-01T03:09:36;11.30;99.90
14884;DHT22;7534;50.762;7.000;2023-04-01T03:12:03;11.30;99.90
14884;DHT22;7534;50.762;7.000;2023-04-01T03:14:29;11.20;99.90
14884;DHT22;7534;50.762;7.000;2023-04-01T03:16:55;11.20;99.90
14884;DHT22;7534;50.762;7.000;2023-04-01T03:19:20;11.10;99.90
14884;DHT22;7534;50.762;7.000;2023-04-01T03:21:46;11.10;99.90
14884;DHT22;7534;50.762;7.000;2023-04-01T03:24:12;11.00;99.90
14884;DHT22;7534;50.762;7.000;2023-04-01T03:26:37;11.10;99.90
14884;DHT22;7534;50.762;7.000;2023-04-01T03:29:03;11.20;99.90
14884;DHT22;7534;50.762;7.000;2023-04-01T03:31:30;11.10;99.90
14884;DHT22;7534;50.762;7.000;2023-04-01T03:33:56;11.20;99.90
14884;DHT22;7534;50.762;7.000;2023-04-01T03:36:21;11.20;99.90
14884;DHT22;7534;50.762;7.000;2023-04-01T03:38:47;11.20;99.90
14884;DHT22;7534;50.762;7.000;2023-04-01T03:41:14;11.10;99.90
14884;DHT22;7534;50.762;7.000;2023-04-01T03:43:41;11.20;99.90
14884;DHT22;7534;50.762;7.000;2023-04-01T03:46:07;11.30;99.90
14884;DHT22;7534;50.762;7.000;2023-04-01T03:48:33;11.40;99.90
14884;DHT22;7534;50.762;7.000;2023-04-01T03:50:58;11.40;99.90
14884;DHT22;7534;50.762;7.000;2023-04-01T03:53:24;11.40;99.90
14884;DHT22;7534;50.762;7.000;2023-04-01T03:55:50;11.40;99.90
14884;DHT22;7534;50.762;7.000;2023-04-01T03:58:19;11.30;99.90
14884;DHT22;7534;50.762;7.000;2023-04-01T04:00:45;11.30;99.90
14884;DHT22;7534;50.762;7.000;2023-04-01T04:03:10;11.30;99.90
14884;DHT22;7534;50.762;7.000;2023-04-01T04:05:36;11.30;99.90
14884;DHT22;7534;50.762;7.000;2023-04-01T04:08:02;11.40;99.90
14884;DHT22;7534;50.762;7.000;2023-04-01T04:10:28;11.40;99.90
14884;DHT22;7534;50.762;7.000;2023-04-01T04:12:55;11.40;99.90
14884;DHT22;7534;50.762;7.000;2023-04-01T04:15:21;11.40;99.90
14884;DHT22;7534;50.762;7.000;2023-04-01T04:17:47;11.40;99.90
14884;DHT22;7534;50.762;7.000;2023-04-01T04:20:13;11.40;99.90
14884;DHT22;7534;50.762;7.000;2023-04-01T04:22:39;11.40;99.90
14884;DHT22;7534;50.762;7.000;2023-04-01T04:25:06;11.40;99.90
14884;DHT22;7534;50.762;7.000;2023-04-01T04:27:33;11.30;99.90
14884;DHT22;7534;50.762;7.000;2023-04-01T04:29:59;11.30;99.90
14884;DHT22;7534;50.762;7.000;2023-04-01T04:32:24;11.40;99.90
14884;DHT22;7534;50.762;7.000;2023-04-01T04:34:50;11.40;99.90
14884;DHT22;7534;50.762;7.000;2023-04-01T04:37:16;11.40;99.90
14884;DHT22;7534;50.762;7.000;2023-04-01T04:39:41;11.40;99.90
14884;DHT22;7534;50.762;7.000;2023-04-01T04:42:07;11.40;99.90
14884;DHT22;7534;50.762;7.000;2023-04-01T04:44:33;11.30;99.90
14884;DHT22;7534;50.762;7.000;2023-04-01T04:46:58;11.40;99.90
14884;DHT22;7534;50.762;7.000;2023-04-01T04:49:25;11.40;99.90
14884;DHT22;7534;50.762;7.000;2023-04-01T04:51:50;11.40;99.90
14884;DHT22;7534;50.762;7.000;2023-04-01T04:54:17;11.40;99.90
14884;DHT22;7534;50.762;7.000;2023-04-01T04:56:43;11.30;99.90
14884;DHT22;7534;50.762;7.000;2023-04-01T04:59:09;11.30;99.90
14884;DHT22;7534;50.762;7.000;2023-04-01T05:01:35;11.20;99.90
14884;DHT22;7534;50.762;7.000;2023-04-01T05:04:01;11.30;99.90
14884;DHT22;7534;50.762;7.000;2023-04-01T05:06:28;11.20;99.90
14884;DHT22;7534;50.762;7.000;2023-04-01T05:08:55;11.20;99.90
14884;DHT22;7534;50.762;7.000;2023-04-01T05:11:23;11.20;99.90
14884;DHT22;7534;50.762;7.000;2023-04-01T05:13:51;11.20;99.90
14884;DHT22;7534;50.762;7.000;2023-04-01T05:16:20;11.20;99.90
14884;DHT22;7534;50.762;7.000;2023-04-01T05:18:46;11.10;99.90
14884;DHT22;7534;50.762;7.000;2023-04-01T05:21:13;11.20;99.90
14884;DHT22;7534;50.762;7.000;2023-04-01T05:23:40;11.10;99.90
14884;DHT22;7534;50.762;7.000;2023-04-01T05:26:11;11.10;99.90
14884;DHT22;7534;50.762;7.000;2023-04-01T05:28:39;11.00;99.90
14884;DHT22;7534;50.762;7.000;2023-04-01T05:31:06;11.00;99.90
14884;DHT22;7534;50.762;7.000;2023-04-01T05:33:33;11.00;99.90
14884;DHT22;7534;50.762;7.000;2023-04-01T05:36:10;11.00;99.90
14884;DHT22;7534;50.762;7.000;2023-04-01T05:38:41;10.90;99.90
14884;DHT22;7534;50.762;7.000;2023-04-01T05:41:14;10.80;99.90
14884;DHT22;7534;50.762;7.000;2023-04-01T05:43:41;10.70;99.90
14884;DHT22;7534;50.762;7.000;2023-04-01T05:46:08;10.70;99.90
14884;DHT22;7534;50.762;7.000;2023-04-01T05:48:34;10.70;99.90
14884;DHT22;7534;50.762;7.000;2023-04-01T05:51:01;10.70;99.90
14884;DHT22;7534;50.762;7.000;2023-04-01T05:53:27;10.70;99.90
14884;DHT22;7534;50.762;7.000;2023-04-01T05:55:52;10.70;99.90
14884;DHT22;7534;50.762;7.000;2023-04-01T05:58:18;10.70;99.90
14884;DHT22;7534;50.762;7.000;2023-04-01T06:00:44;10.80;99.90
14884;DHT22;7534;50.762;7.000;2023-04-01T06:03:09;10.80;99.90
14884;DHT22;7534;50.762;7.000;2023-04-01T06:05:42;10.90;99.90
14884;DHT22;7534;50.762;7.000;2023-04-01T06:08:15;10.90;99.90
14884;DHT22;7534;50.762;7.000;2023-04-01T06:19:11;10.90;99.90
14884;DHT22;7534;50.762;7.000;2023-04-01T06:22:22;10.90;99.90
14884;DHT22;7534;50.762;7.000;2023-04-01T06:31:33;11.00;99.90
14884;DHT22;7534;50.762;7.000;2023-04-01T06:34:39;11.20;99.90
14884;DHT22;7534;50.762;7.000;2023-04-01T06:43:41;11.50;99.90
14884;DHT22;7534;50.762;7.000;2023-04-01T06:46:32;11.60;99.90
14884;DHT22;7534;50.762;7.000;2023-04-01T06:49:35;11.70;99.90
14884;DHT22;7534;50.762;7.000;2023-04-01T06:52:51;11.80;99.90
14884;DHT22;7534;50.762;7.000;2023-04-01T06:56:02;11.80;99.90
14884;DHT22;7534;50.762;7.000;2023-04-01T06:58:46;11.80;99.90
14884;DHT22;7534;50.762;7.000;2023-04-01T07:01:23;11.90;99.90
14884;DHT22;7534;50.762;7.000;2023-04-01T07:04:05;12.20;99.90
14884;DHT22;7534;50.762;7.000;2023-04-01T07:09:33;12.50;99.90
14884;DHT22;7534;50.762;7.000;2023-04-01T07:12:11;12.60;99.90
14884;DHT22;7534;50.762;7.000;2023-04-01T07:14:44;12.70;99.90
14884;DHT22;7534;50.762;7.000;2023-04-01T07:17:19;12.70;99.90
14884;DHT22;7534;50.762;7.000;2023-04-01T07:20:22;12.60;99.90
14884;DHT22;7534;50.762;7.000;2023-04-01T07:22:55;12.60;99.90
14884;DHT22;7534;50.762;7.000;2023-04-01T07:25:58;12.70;99.90
14884;DHT22;7534;50.762;7.000;2023-04-01T07:28:31;12.80;99.90
14884;DHT22;7534;50.762;7.000;2023-04-01T07:31:05;12.80;99.90
14884;DHT22;7534;50.762;7.000;2023-04-01T07:37:14;12.70;99.90
14884;DHT22;7534;50.762;7.000;2023-04-01T07:43:17;12.70;99.90
14884;DHT22;7534;50.762;7.000;2023-04-01T07:47:01;12.70;99.90
14884;DHT22;7534;50.762;7.000;2023-04-01T07:53:12;12.80;99.90
14884;DHT22;7534;50.762;7.000;2023-04-01T07:56:09;12.80;99.90
14884;DHT22;7534;50.762;7.000;2023-04-01T08:01:41;12.80;99.90
14884;DHT22;7534;50.762;7.000;2023-04-01T08:10:41;12.80;99.90
14884;DHT22;7534;50.762;7.000;2023-04-01T08:13:36;12.80;99.90
14884;DHT22;7534;50.762;7.000;2023-04-01T08:16:26;12.80;99.90
14884;DHT22;7534;50.762;7.000;2023-04-01T08:21:52;12.90;99.90
14884;DHT22;7534;50.762;7.000;2023-04-01T08:24:42;13.00;99.90
14884;DHT22;7534;50.762;7.000;2023-04-01T08:27:26;13.10;99.90
14884;DHT22;7534;50.762;7.000;2023-04-01T08:33:09;13.00;99.90
14884;DHT22;7534;50.762;7.000;2023-04-01T08:35:54;12.90;99.90
14884;DHT22;7534;50.762;7.000;2023-04-01T08:38:49;12.90;99.90
14884;DHT22;7534;50.762;7.000;2023-04-01T08:44:36;12.80;99.90
14884;DHT22;7534;50.762;7.000;2023-04-01T08:47:46;12.60;99.90
14884;DHT22;7534;50.762;7.000;2023-04-01T08:50:34;12.60;99.90
14884;DHT22;7534;50.762;7.000;2023-04-01T08:53:34;12.90;99.90
14884;DHT22;7534;50.762;7.000;2023-04-01T08:56:33;13.00;99.90
14884;DHT22;7534;50.762;7.000;2023-04-01T09:05:47;12.60;99.90
14884;DHT22;7534;50.762;7.000;2023-04-01T09:14:35;13.20;99.90
14884;DHT22;7534;50.762;7.000;2023-04-01T09:23:43;13.40;99.90
14884;DHT22;7534;50.762;7.000;2023-04-01T09:27:00;13.00;99.90
14884;DHT22;7534;50.762;7.000;2023-04-01T09:29:52;13.00;99.90
14884;DHT22;7534;50.762;7.000;2023-04-01T09:35:36;13.10;99.90
14884;DHT22;7534;50.762;7.000;2023-04-01T09:38:22;13.30;99.90
14884;DHT22;7534;50.762;7.000;2023-04-01T09:53:48;14.10;99.90
14884;DHT22;7534;50.762;7.000;2023-04-01T09:56:43;14.40;99.90
14884;DHT22;7534;50.762;7.000;2023-04-01T09:59:49;14.50;99.90
14884;DHT22;7534;50.762;7.000;2023-04-01T10:02:44;14.00;99.90
14884;DHT22;7534;50.762;7.000;2023-04-01T10:28:37;14.40;99.90
14884;DHT22;7534;50.762;7.000;2023-04-01T10:31:36;14.50;99.90
14884;DHT22;7534;50.762;7.000;2023-04-01T10:37:41;15.30;99.90
14884;DHT22;7534;50.762;7.000;2023-04-01T10:58:59;15.10;99.90
14884;DHT22;7534;50.762;7.000;2023-04-01T11:16:43;15.20;99.90
14884;DHT22;7534;50.762;7.000;2023-04-01T11:20:16;15.20;99.90
14884;DHT22;7534;50.762;7.000;2023-04-01T11:31:19;14.00;99.90
14884;DHT22;7534;50.762;7.000;2023-04-01T11:34:16;13.80;99.90
14884;DHT22;7534;50.762;7.000;2023-04-01T11:43:37;13.80;99.90
14884;DHT22;7534;50.762;7.000;2023-04-01T11:46:34;13.80;99.90
14884;DHT22;7534;50.762;7.000;2023-04-01T11:55:40;13.90;99.90
14884;DHT22;7534;50.762;7.000;2023-04-01T11:58:58;13.80;99.90
14884;DHT22;7534;50.762;7.000;2023-04-01T12:07:45;14.00;99.90
14884;DHT22;7534;50.762;7.000;2023-04-01T12:10:35;14.10;99.90
14884;DHT22;7534;50.762;7.000;2023-04-01T12:19:26;14.30;99.90
14884;DHT22;7534;50.762;7.000;2023-04-01T12:28:36;14.60;99.90
14884;DHT22;7534;50.762;7.000;2023-04-01T12:34:18;14.70;99.90
14884;DHT22;7534;50.762;7.000;2023-04-01T12:37:16;14.90;99.90
14884;DHT22;7534;50.762;7.000;2023-04-01T12:40:39;15.00;99.90
14884;DHT22;7534;50.762;7.000;2023-04-01T12:43:39;14.90;99.90
14884;DHT22;7534;50.762;7.000;2023-04-01T12:55:35;14.30;99.90
14884;DHT22;7534;50.762;7.000;2023-04-01T13:05:37;14.90;99.90
14884;DHT22;7534;50.762;7.000;2023-04-01T13:19:56;14.60;99.90
14884;DHT22;7534;50.762;7.000;2023-04-01T13:30:43;15.10;99.90
14884;DHT22;7534;50.762;7.000;2023-04-01T13:36:27;16.00;99.90
14884;DHT22;7534;50.762;7.000;2023-04-01T13:42:28;16.00;98.60
14884;DHT22;7534;50.762;7.000;2023-04-01T13:45:21;15.70;99.40
14884;DHT22;7534;50.762;7.000;2023-04-01T14:00:07;15.50;99.90
14884;DHT22;7534;50.762;7.000;2023-04-01T14:02:51;15.70;99.90
14884;DHT22;7534;50.762;7.000;2023-04-01T14:21:05;15.20;99.90
14884;DHT22;7534;50.762;7.000;2023-04-01T14:23:57;15.20;99.90
14884;DHT22;7534;50.762;7.000;2023-04-01T14:27:09;14.80;99.90
14884;DHT22;7534;50.762;7.000;2023-04-01T14:30:16;14.70;99.90
14884;DHT22;7534;50.762;7.000;2023-04-01T14:51:02;15.50;99.70
14884;DHT22;7534;50.762;7.000;2023-04-01T14:53:38;15.50;99.10
14884;DHT22;7534;50.762;7.000;2023-04-01T14:56:12;15.20;99.90
14884;DHT22;7534;50.762;7.000;2023-04-01T14:58:44;15.00;99.90
14884;DHT22;7534;50.762;7.000;2023-04-01T15:01:50;15.00;99.90
14884;DHT22;7534;50.762;7.000;2023-04-01T15:04:54;15.00;99.90
14884;DHT22;7534;50.762;7.000;2023-04-01T15:13:04;15.30;99.90
14884;DHT22;7534;50.762;7.000;2023-04-01T15:16:07;14.90;99.80
14884;DHT22;7534;50.762;7.000;2023-04-01T15:24:45;14.60;99.90
14884;DHT22;7534;50.762;7.000;2023-04-01T15:30:20;14.20;99.90
14884;DHT22;7534;50.762;7.000;2023-04-01T16:07:26;13.40;99.90
14884;DHT22;7534;50.762;7.000;2023-04-01T16:11:04;13.30;99.90
14884;DHT22;7534;50.762;7.000;2023-04-01T16:25:40;13.40;99.90
14884;DHT22;7534;50.762;7.000;2023-04-01T16:28:38;13.40;99.90
14884;DHT22;7534;50.762;7.000;2023-04-01T16:31:22;13.60;99.90
14884;DHT22;7534;50.762;7.000;2023-04-01T16:34:45;13.50;99.90
14884;DHT22;7534;50.762;7.000;2023-04-01T16:37:33;13.30;99.90
14884;DHT22;7534;50.762;7.000;2023-04-01T16:40:22;13.20;99.90
14884;DHT22;7534;50.762;7.000;2023-04-01T16:43:20;13.10;99.90
14884;DHT22;7534;50.762;7.000;2023-04-01T16:45:57;13.00;99.90
14884;DHT22;7534;50.762;7.000;2023-04-01T16:48:49;13.00;99.90
14884;DHT22;7534;50.762;7.000;2023-04-01T16:51:32;12.80;99.90
14884;DHT22;7534;50.762;7.000;2023-04-01T16:54:10;12.60;99.90
14884;DHT22;7534;50.762;7.000;2023-04-01T16:59:44;12.50;99.90
14884;DHT22;7534;50.762;7.000;2023-04-01T17:02:18;12.50;99.90
14884;DHT22;7534;50.762;7.000;2023-04-01T17:04:57;12.40;99.90
14884;DHT22;7534;50.762;7.000;2023-04-01T17:19:46;12.20;99.90
14884;DHT22;7534;50.762;7.000;2023-04-01T17:26:01;12.10;99.90
14884;DHT22;7534;50.762;7.000;2023-04-01T17:28:47;12.10;99.90
14884;DHT22;7534;50.762;7.000;2023-04-01T17:31:37;12.00;99.90
14884;DHT22;7534;50.762;7.000;2023-04-01T17:37:45;11.80;99.90
14884;DHT22;7534;50.762;7.000;2023-04-01T17:43:22;11.50;99.90
14884;DHT22;7534;50.762;7.000;2023-04-01T17:46:19;11.60;99.90
14884;DHT22;7534;50.762;7.000;2023-04-01T17:52:00;11.70;99.90
14884;DHT22;7534;50.762;7.000;2023-04-01T18:00:16;11.60;99.90
14884;DHT22;7534;50.762;7.000;2023-04-01T18:12:32;11.50;99.90
14884;DHT22;7534;50.762;7.000;2023-04-01T18:15:37;11.50;99.90
14884;DHT22;7534;50.762;7.000;2023-04-01T18:21:43;11.40;99.90
14884;DHT22;7534;50.762;7.000;2023-04-01T18:24:14;11.30;99.90
14884;DHT22;7534;50.762;7.000;2023-04-01T18:27:04;11.30;99.90
14884;DHT22;7534;50.762;7.000;2023-04-01T18:30:13;11.20;99.90
14884;DHT22;7534;50.762;7.000;2023-04-01T18:32:52;11.20;99.90
14884;DHT22;7534;50.762;7.000;2023-04-01T18:38:33;11.20;99.90
14884;DHT22;7534;50.762;7.000;2023-04-01T18:41:32;11.10;99.90
14884;DHT22;7534;50.762;7.000;2023-04-01T18:44:47;11.20;99.90
14884;DHT22;7534;50.762;7.000;2023-04-01T18:47:26;11.20;99.90
14884;DHT22;7534;50.762;7.000;2023-04-01T18:50:30;11.20;99.90
14884;DHT22;7534;50.762;7.000;2023-04-01T18:53:28;11.20;99.90
14884;DHT22;7534;50.762;7.000;2023-04-01T18:56:14;11.10;99.90
14884;DHT22;7534;50.762;7.000;2023-04-01T19:04:45;11.00;99.90
14884;DHT22;7534;50.762;7.000;2023-04-01T19:20:15;11.00;99.90
14884;DHT22;7534;50.762;7.000;2023-04-01T19:26:11;11.00;99.90
14884;DHT22;7534;50.762;7.000;2023-04-01T19:29:19;10.90;99.90
14884;DHT22;7534;50.762;7.000;2023-04-01T19:44:09;11.00;99.90
14884;DHT22;7534;50.762;7.000;2023-04-01T19:49:52;11.20;99.90
14884;DHT22;7534;50.762;7.000;2023-04-01T19:52:45;11.10;99.90
14884;DHT22;7534;50.762;7.000;2023-04-01T19:58:57;11.00;99.90
14884;DHT22;7534;50.762;7.000;2023-04-01T20:01:44;10.90;99.90
14884;DHT22;7534;50.762;7.000;2023-04-01T20:04:42;10.80;99.90
14884;DHT22;7534;50.762;7.000;2023-04-01T20:07:27;10.70;99.90
14884;DHT22;7534;50.762;7.000;2023-04-01T20:10:16;10.80;99.90
14884;DHT22;7534;50.762;7.000;2023-04-01T20:13:02;10.80;99.90
14884;DHT22;7534;50.762;7.000;2023-04-01T20:16:13;10.80;99.90
14884;DHT22;7534;50.762;7.000;2023-04-01T20:18:51;10.80;99.90
14884;DHT22;7534;50.762;7.000;2023-04-01T20:21:27;10.80;99.90
14884;DHT22;7534;50.762;7.000;2023-04-01T20:26:43;10.70;99.90
14884;DHT22;7534;50.762;7.000;2023-04-01T20:29:35;10.70;99.90
14884;DHT22;7534;50.762;7.000;2023-04-01T20:32:17;10.60;99.90
14884;DHT22;7534;50.762;7.000;2023-04-01T20:35:02;10.50;99.90
14884;DHT22;7534;50.762;7.000;2023-04-01T20:40:48;10.60;99.90
14884;DHT22;7534;50.762;7.000;2023-04-01T20:49:33;10.70;99.90
14884;DHT22;7534;50.762;7.000;2023-04-01T20:54:51;10.70;99.90
14884;DHT22;7534;50.762;7.000;2023-04-01T21:03:18;10.70;99.90
14884;DHT22;7534;50.762;7.000;2023-04-01T21:16:16;10.80;99.90
14884;DHT22;7534;50.762;7.000;2023-04-01T21:22:19;10.70;99.90
14884;DHT22;7534;50.762;7.000;2023-04-01T21:28:11;10.60;99.90
14884;DHT22;7534;50.762;7.000;2023-04-01T21:33:45;10.50;99.90
14884;DHT22;7534;50.762;7.000;2023-04-01T21:36:25;10.50;99.90
14884;DHT22;7534;50.762;7.000;2023-04-01T21:45:09;10.50;99.90
14884;DHT22;7534;50.762;7.000;2023-04-01T21:51:17;10.50;99.90
14884;DHT22;7534;50.762;7.000;2023-04-01T21:54:20;10.50;99.90
14884;DHT22;7534;50.762;7.000;2023-04-01T22:06:29;10.40;99.90
14884;DHT22;7534;50.762;7.000;2023-04-01T22:09:05;10.20;99.90
14884;DHT22;7534;50.762;7.000;2023-04-01T22:14:50;10.30;99.90
14884;DHT22;7534;50.762;7.000;2023-04-01T22:26:44;10.40;99.90
14884;DHT22;7534;50.762;7.000;2023-04-01T22:32:45;10.40;99.90
14884;DHT22;7534;50.762;7.000;2023-04-01T22:38:07;10.40;99.90
14884;DHT22;7534;50.762;7.000;2023-04-01T22:41:12;10.40;99.90
14884;DHT22;7534;50.762;7.000;2023-04-01T22:43:39;10.40;99.90
14884;DHT22;7534;50.762;7.000;2023-04-01T22:46:35;10.40;99.90
14884;DHT22;7534;50.762;7.000;2023-04-01T22:49:47;10.50;99.90
14884;DHT22;7534;50.762;7.000;2023-04-01T22:52:45;10.50;99.90
14884;DHT22;7534;50.762;7.000;2023-04-01T22:55:15;10.40;99.90
14884;DHT22;7534;50.762;7.000;2023-04-01T23:00:38;10.30;99.90
14884;DHT22;7534;50.762;7.000;2023-04-01T23:06:00;10.40;99.90
14884;DHT22;7534;50.762;7.000;2023-04-01T23:08:55;10.40;99.90
14884;DHT22;7534;50.762;7.000;2023-04-01T23:12:04;10.30;99.90
14884;DHT22;7534;50.762;7.000;2023-04-01T23:14:48;10.40;99.90
14884;DHT22;7534;50.762;7.000;2023-04-01T23:17:25;10.30;99.90
14884;DHT22;7534;50.762;7.000;2023-04-01T23:20:17;10.30;99.90
14884;DHT22;7534;50.762;7.000;2023-04-01T23:26:09;10.30;99.90
14884;DHT22;7534;50.762;7.000;2023-04-01T23:28:56;10.30;99.90
14884;DHT22;7534;50.762;7.000;2023-04-01T23:31:42;10.40;99.90
14884;DHT22;7534;50.762;7.000;2023-04-01T23:36:42;10.30;99.90
14884;DHT22;7534;50.762;7.000;2023-04-01T23:42:21;10.40;99.90
14884;DHT22;7534;50.762;7.000;2023-04-01T23:44:58;10.40;99.90
14884;DHT22;7534;50.762;7.000;2023-04-01T23:47:35;10.40;99.90
14884;DHT22;7534;50.762;7.000;2023-04-01T23:50:09;10.40;99.90
14884;DHT22;7534;50.762;7.000;2023-04-01T23:52:52;10.30;99.90
14884;DHT22;7534;50.762;7.000;2023-04-01T23:55:31;10.20;99.90
14884;DHT22;7534;50.762;7.000;2023-04-01T23:58:23;10.30;99.90
